Bowring, Oklahoma
Current Conditions -  °F | °C
As of 9:53 AM on Thursday 27 Nov 2014 (Local Time) from KBVO Reporting Station
Clear Clear  
Wind Chill:   Ceiling: Unl
Heat Index:   Visibility: 10mi
Dew Point: -5°   Wind: 3mph
Humidity: 69%   Direction: 120°ESE
Pressure: 30.59"   Gusts: NA
Location:  36.88°N, 96.12°W
Report Text: KBVO 271553Z AUTO 12003KT 10SM CLR 00/M05 A3059 RMK AO2 SLP360 T00001050
Loading
Personal Weather Stations






























Interactive Weather Map New forecast layout! Learn more

10-Day Weather Forecast

Advertisements
Track Severe Weather on mobile